createdAt,value
2022-08-23T00:03:31.264Z,18.40
2022-08-23T00:10:16.231Z,18.10
2022-08-23T00:16:59.366Z,18.10
2022-08-23T00:23:41.974Z,17.90
2022-08-23T00:30:24.434Z,18.10
2022-08-23T00:37:08.319Z,18.10
2022-08-23T00:44:09.424Z,18.10
2022-08-23T00:50:57.871Z,17.80
2022-08-23T00:57:41.269Z,17.60
2022-08-23T01:04:32.722Z,17.40
2022-08-23T01:11:42.083Z,17.40
2022-08-23T01:18:26.743Z,17.30
2022-08-23T01:25:13.932Z,17.20
2022-08-23T01:31:58.637Z,17.50
2022-08-23T01:38:41.044Z,17.50
2022-08-23T01:45:23.451Z,17.60
2022-08-23T01:52:06.012Z,17.40
2022-08-23T01:58:49.252Z,17.20
2022-08-23T02:05:32.607Z,17.10
2022-08-23T02:12:15.932Z,16.80
2022-08-23T02:18:58.350Z,16.60
2022-08-23T02:25:40.958Z,16.80
2022-08-23T02:32:26.952Z,16.70
2022-08-23T02:39:10.859Z,16.70
2022-08-23T02:45:54.097Z,16.60
2022-08-23T02:52:36.525Z,16.60
2022-08-23T02:59:19.794Z,16.60
2022-08-23T03:06:24.612Z,16.60
2022-08-23T03:13:06.059Z,16.50
2022-08-23T03:19:48.727Z,16.30
2022-08-23T03:26:31.183Z,16.30
2022-08-23T03:33:13.776Z,16.30
2022-08-23T03:39:57.198Z,16.20
2022-08-23T03:46:40.739Z,16.30
2022-08-23T03:53:24.065Z,16.40
2022-08-23T04:00:11.344Z,16.30
2022-08-23T04:06:56.728Z,16.20
2022-08-23T04:13:40.127Z,16.00
2022-08-23T04:20:22.607Z,15.80
2022-08-23T04:27:10.834Z,15.60
2022-08-23T04:33:54.691Z,15.60
2022-08-23T04:40:55.946Z,15.60
2022-08-23T04:47:41.294Z,15.60
2022-08-23T04:54:25.065Z,15.70
2022-08-23T05:01:26.805Z,15.80
2022-08-23T05:08:10.549Z,15.90
2022-08-23T05:14:52.977Z,16.20
2022-08-23T05:21:35.417Z,16.40
2022-08-23T05:28:23.689Z,16.50
2022-08-23T05:35:07.548Z,16.70
2022-08-23T05:41:52.535Z,16.80
2022-08-23T05:48:36.932Z,17.30
2022-08-23T05:55:22.235Z,18.20
2022-08-23T06:02:30.751Z,18.80
2022-08-23T06:09:16.999Z,21.20
2022-08-23T06:15:59.554Z,24.90
2022-08-23T06:22:42.627Z,27.20
2022-08-23T06:29:25.496Z,28.60
2022-08-23T06:36:27.881Z,29.80
2022-08-23T06:43:29.303Z,31.40
2022-08-23T06:50:47.816Z,32.50
2022-08-23T06:57:46.322Z,32.90
2022-08-23T07:04:53.696Z,31.60
2022-08-23T07:11:46.315Z,31.40
2022-08-23T07:18:29.125Z,30.60
2022-08-23T07:25:11.736Z,30.90
2022-08-23T07:31:56.380Z,31.50
2022-08-23T07:38:39.743Z,31.90
2022-08-23T07:45:23.142Z,34.20
2022-08-23T07:52:09.204Z,35.10
2022-08-23T07:58:51.954Z,36.50
2022-08-23T08:05:48.743Z,37.50
2022-08-23T08:12:33.464Z,37.50
2022-08-23T08:19:25.558Z,38.10
2022-08-23T08:26:34.767Z,36.90
2022-08-23T08:33:18.292Z,38.60
2022-08-23T08:40:04.027Z,39.40
2022-08-23T08:46:54.601Z,40.10
2022-08-23T08:53:46.292Z,39.20
2022-08-23T09:00:33.454Z,39.70
2022-08-23T09:07:32.744Z,39.60
2022-08-23T09:14:53.474Z,39.10
2022-08-23T09:21:49.648Z,38.60
2022-08-23T09:28:36.420Z,38.90
2022-08-23T09:35:25.535Z,39.00
2022-08-23T09:42:36.392Z,38.50
2022-08-23T09:49:29.813Z,38.40
2022-08-23T09:56:26.395Z,39.50
2022-08-23T10:03:25.812Z,40.00
2022-08-23T10:10:46.617Z,38.90
2022-08-23T10:17:45.134Z,38.60
2022-08-23T10:25:02.427Z,38.40
2022-08-23T10:32:01.056Z,39.00
2022-08-23T10:39:03.638Z,39.90
2022-08-23T10:45:48.938Z,39.60
2022-08-23T10:52:57.833Z,38.70
2022-08-23T10:59:41.746Z,35.10
2022-08-23T11:06:26.911Z,32.90
2022-08-23T11:13:15.783Z,31.90
2022-08-23T11:20:07.875Z,31.30
2022-08-23T11:26:51.398Z,31.20
2022-08-23T11:33:50.915Z,30.90
2022-08-23T11:40:52.219Z,30.10
2022-08-23T11:47:44.517Z,30.50
2022-08-23T11:54:50.062Z,30.30
2022-08-23T12:01:34.492Z,30.30
2022-08-23T12:08:50.968Z,30.20
2022-08-23T12:16:25.337Z,29.90
2022-08-23T12:23:19.849Z,30.00
2022-08-23T12:30:27.259Z,29.90
2022-08-23T12:37:45.914Z,30.10
2022-08-23T12:44:30.021Z,29.90
2022-08-23T12:51:17.243Z,30.40
2022-08-23T12:58:00.285Z,30.50
2022-08-23T13:04:43.513Z,30.50
2022-08-23T13:11:29.254Z,30.80
2022-08-23T13:18:22.540Z,30.80
2022-08-23T13:25:27.501Z,30.90
2022-08-23T13:32:31.609Z,30.70
2022-08-23T13:39:14.872Z,31.00
2022-08-23T13:46:00.658Z,31.00
2022-08-23T13:53:03.066Z,30.90
2022-08-23T13:59:58.794Z,31.10
2022-08-23T14:06:41.158Z,31.10
2022-08-23T14:13:28.979Z,31.50
2022-08-23T14:27:15.351Z,31.50
2022-08-23T14:34:01.838Z,31.70
2022-08-23T14:40:53.889Z,32.00
2022-08-23T14:47:36.657Z,31.70
2022-08-23T14:54:24.909Z,31.70
2022-08-23T15:01:07.906Z,31.20
2022-08-23T15:07:50.703Z,31.10
2022-08-23T15:14:33.872Z,30.90
2022-08-23T15:21:17.251Z,31.30
2022-08-23T15:28:01.784Z,31.50
2022-08-23T15:34:46.244Z,31.50
2022-08-23T15:41:29.011Z,31.70
2022-08-23T15:48:22.122Z,31.50
2022-08-23T15:55:06.109Z,31.30
2022-08-23T16:01:50.639Z,31.20
2022-08-23T16:08:37.208Z,30.90
2022-08-23T16:15:19.711Z,30.70
2022-08-23T16:22:02.369Z,30.20
2022-08-23T16:28:46.851Z,30.20
2022-08-23T16:35:29.313Z,30.30
2022-08-23T16:42:11.750Z,30.10
2022-08-23T16:48:54.107Z,29.80
2022-08-23T16:55:39.474Z,29.80
2022-08-23T17:02:31.744Z,29.60
2022-08-23T17:09:14.456Z,29.80
2022-08-23T17:15:56.882Z,29.80
2022-08-23T17:22:39.652Z,29.80
2022-08-23T17:29:22.038Z,29.90
2022-08-23T17:36:04.974Z,29.60
2022-08-23T17:42:47.426Z,29.40
2022-08-23T17:49:29.838Z,29.10
2022-08-23T17:56:12.606Z,28.90
2022-08-23T18:02:55.314Z,28.70
2022-08-23T18:09:41.569Z,28.50
2022-08-23T18:16:35.216Z,28.20
2022-08-23T18:23:18.299Z,27.80
2022-08-23T18:30:00.679Z,27.50
2022-08-23T18:36:44.798Z,27.20
2022-08-23T18:43:27.210Z,26.90
2022-08-23T18:50:20.068Z,26.60
2022-08-23T18:57:03.456Z,26.20
2022-08-23T19:03:45.826Z,26.00
2022-08-23T19:10:28.275Z,25.70
2022-08-23T19:17:10.677Z,25.50
2022-08-23T19:23:55.521Z,25.10
2022-08-23T19:30:38.379Z,24.80
2022-08-23T19:37:23.349Z,25.00
2022-08-23T19:44:07.774Z,25.00
2022-08-23T19:50:50.525Z,24.70
2022-08-23T19:57:33.372Z,24.30
2022-08-23T20:04:16.608Z,23.90
2022-08-23T20:10:59.415Z,23.80
2022-08-23T20:17:41.952Z,23.90
2022-08-23T20:24:42.527Z,23.40
2022-08-23T20:31:30.436Z,23.50
2022-08-23T20:38:33.992Z,23.30
2022-08-23T20:45:15.287Z,23.10
2022-08-23T20:51:57.626Z,22.80
2022-08-23T20:58:40.261Z,22.70
2022-08-23T21:05:22.678Z,22.70
2022-08-23T21:12:06.651Z,22.40
2022-08-23T21:18:49.257Z,22.40
2022-08-23T21:25:31.903Z,22.30
2022-08-23T21:32:14.309Z,22.30
2022-08-23T21:38:56.701Z,22.20
2022-08-23T21:45:41.567Z,22.20
2022-08-23T21:52:25.673Z,22.00
2022-08-23T21:59:10.864Z,21.90
2022-08-23T22:05:54.213Z,22.00
2022-08-23T22:12:37.975Z,21.90
2022-08-23T22:19:20.684Z,21.90
2022-08-23T22:26:06.007Z,21.80
2022-08-23T22:32:49.419Z,21.70
2022-08-23T22:39:31.801Z,21.70
2022-08-23T22:46:14.261Z,21.60
2022-08-23T22:52:56.623Z,21.50
2022-08-23T22:59:39.259Z,21.50
2022-08-23T23:06:22.050Z,21.40
2022-08-23T23:13:04.401Z,21.20
2022-08-23T23:20:05.250Z,21.10
2022-08-23T23:26:48.237Z,21.10
2022-08-23T23:33:30.627Z,21.00
2022-08-23T23:40:13.215Z,20.80
2022-08-23T23:46:55.815Z,20.70
2022-08-23T23:53:40.008Z,20.60
